Lennox, California
Current Conditions -  °F | °C
As of 11:53 AM on Sunday 23 Nov 2014 (Local Time) from KHHR Reporting Station
Clear Clear  
Wind Chill: 75°   Ceiling: Unl
Heat Index: 75°   Visibility: 10mi
Dew Point: 37°   Wind: 8mph
Humidity: 25%   Direction: 170°S
Pressure: 30.1"   Gusts: NA
Location:  33.94°N, 118.35°W
Report Text: KHHR 231953Z 17007KT 10SM CLR 24/03 A3010 RMK AO2 SLP191 T02390028
Loading
Personal Weather Stations






























Interactive Weather Map New forecast layout! Learn more

10-Day Weather Forecast

Advertisements
Track Severe Weather on mobile